Time;durP1;ratioP1;P1;durP2;ratioP2;P2;SDS_P1;SDS_P2;PMS_P1;PMS_P2;Temp;Humidity;BMP_temperature;BMP_pressure;BME280_temperature;BME280_humidity;BME280_pressure;Samples;Min_cycle;Max_cycle;Signal;HPM_P1;HPM_P2
2023/04/03 00:01:54;;;;;;;;;;;;;;;8.27;51.36;100324.63;5359784;32;34573;-63
2023/04/03 00:04:56;;;;;;;;;;;;;;;8.09;51.88;100323.41;5355740;32;34298;-61
2023/04/03 00:07:58;;;;;;;;;;;;;;;8.53;50.87;100318.63;5353978;32;34166;-61
2023/04/03 00:11:00;;;;;;;;;;;;;;;8.11;51.46;100326.88;5370695;32;33708;-63
2023/04/03 00:14:02;;;;;;;;;;;;;;;8.23;51.01;100296.81;5354366;32;34383;-60
2023/04/03 00:17:04;;;;;;;;;;;;;;;8.51;50.59;100327.44;5369627;32;34300;-61
2023/04/03 00:20:06;;;;;;;;;;;;;;;8.01;51.53;100312.31;5355783;32;34473;-61
2023/04/03 00:23:08;;;;;;;;;;;;;;;8.40;50.76;100322.53;5355308;32;36691;-61
2023/04/03 00:26:10;;;;;;;;;;;;;;;9.07;48.54;100322.09;5364339;32;34037;-65
2023/04/03 00:29:12;;;;;;;;;;;;;;;8.49;49.75;100314.38;5354049;32;35102;-60
2023/04/03 00:32:14;;;;;;;;;;;;;;;8.36;50.09;100331.38;5369219;32;34040;-64
2023/04/03 00:35:16;;;;;;;;;;;;;;;8.18;50.83;100335.41;5353480;32;35840;-61
2023/04/03 00:38:18;;;;;;;;;;;;;;;9.71;47.13;100310.19;5369460;32;33613;-63
2023/04/03 00:41:21;;;;;;;;;;;;;;;9.63;47.68;100327.97;5352544;32;34747;-66
2023/04/03 00:44:32;;;;;;;;;;;;;;;9.38;48.41;100330.59;5356924;32;33548;-61
2023/04/03 00:47:34;;;;;;;;;;;;;;;9.05;48.92;100337.03;5373711;32;33627;-60
2023/04/03 00:50:37;;;;;;;;;;;;;;;9.36;48.30;100332.44;5353445;32;33190;-62
2023/04/03 00:53:41;;;;;;;;;;;;;;;8.88;49.36;100338.41;5368352;32;44458;-61
2023/04/03 00:56:43;;;;;;;;;;;;;;;9.14;48.30;100336.69;5352226;32;32935;-64
2023/04/03 00:59:46;;;;;;;;;;;;;;;9.32;47.98;100346.56;5366305;32;33611;-65
2023/04/03 01:02:49;;;;;;;;;;;;;;;8.40;49.81;100340.84;5354409;32;34362;-61
2023/04/03 01:05:51;;;;;;;;;;;;;;;9.23;47.70;100339.88;5340173;32;34054;-62
2023/04/03 01:08:53;;;;;;;;;;;;;;;9.24;47.24;100340.72;5369818;32;33742;-66
2023/04/03 01:12:13;;;;;;;;;;;;;;;8.51;49.07;100343.16;5351570;32;33885;-60
2023/04/03 01:15:16;;;;;;;;;;;;;;;9.02;47.91;100345.00;5369051;32;47020;-67
2023/04/03 01:18:18;;;;;;;;;;;;;;;9.03;48.46;100349.34;5353532;32;33678;-61
2023/04/03 01:21:23;;;;;;;;;;;;;;;8.55;49.42;100340.38;5360045;32;34188;-60
2023/04/03 01:24:28;;;;;;;;;;;;;;;9.49;47.22;100332.88;5362943;32;33840;-60
2023/04/03 01:27:30;;;;;;;;;;;;;;;8.56;48.40;100333.34;5351698;32;34216;-61
2023/04/03 01:30:33;;;;;;;;;;;;;;;8.04;49.60;100342.78;5371844;32;33956;-64
2023/04/03 01:33:37;;;;;;;;;;;;;;;7.93;50.05;100342.25;5353188;32;34054;-61
2023/04/03 01:36:38;;;;;;;;;;;;;;;8.25;49.13;100342.16;5371198;32;46394;-61
2023/04/03 01:39:40;;;;;;;;;;;;;;;8.35;48.28;100350.56;5356519;32;33765;-63
2023/04/03 01:42:42;;;;;;;;;;;;;;;7.91;50.00;100351.88;5357256;32;34748;-60
2023/04/03 01:45:46;;;;;;;;;;;;;;;7.94;49.21;100336.13;5365178;32;34941;-62
2023/04/03 01:48:48;;;;;;;;;;;;;;;7.59;50.15;100353.62;5354782;32;34292;-59
2023/04/03 01:51:50;;;;;;;;;;;;;;;8.06;48.64;100357.56;5372199;32;33498;-66
2023/04/03 01:54:52;;;;;;;;;;;;;;;8.55;47.44;100355.22;5355099;32;33945;-60
2023/04/03 01:57:54;;;;;;;;;;;;;;;8.82;46.24;100357.00;5370882;32;33832;-60
2023/04/03 02:00:56;;;;;;;;;;;;;;;7.54;49.63;100374.72;5356860;32;34073;-61
2023/04/03 02:03:58;;;;;;;;;;;;;;;7.68;49.92;100370.88;5347277;32;34335;-64
2023/04/03 02:07:00;;;;;;;;;;;;;;;8.27;48.62;100363.06;5367063;32;34916;-65
2023/04/03 02:10:02;;;;;;;;;;;;;;;7.61;49.43;100362.31;5354947;32;33887;-65
2023/04/03 02:13:04;;;;;;;;;;;;;;;7.80;49.09;100362.69;5371671;32;33574;-62
2023/04/03 02:16:07;;;;;;;;;;;;;;;7.63;49.36;100367.50;5354621;32;34010;-61
2023/04/03 02:19:09;;;;;;;;;;;;;;;7.52;49.78;100367.78;5366471;32;44974;-63
2023/04/03 02:22:11;;;;;;;;;;;;;;;7.67;49.31;100375.25;5357677;32;33165;-61
2023/04/03 02:25:13;;;;;;;;;;;;;;;7.05;50.71;100375.09;5356181;32;33377;-67
2023/04/03 02:28:15;;;;;;;;;;;;;;;7.62;49.32;100360.56;5370819;32;33753;-60
2023/04/03 02:31:17;;;;;;;;;;;;;;;7.37;49.49;100366.44;5353549;32;35745;-60
2023/04/03 02:34:19;;;;;;;;;;;;;;;7.45;50.12;100369.72;5371879;32;33847;-64
2023/04/03 02:37:21;;;;;;;;;;;;;;;7.88;48.87;100379.87;5352614;32;34386;-62
2023/04/03 02:40:23;;;;;;;;;;;;;;;7.82;48.87;100355.63;5369513;32;35671;-60
2023/04/03 02:43:25;;;;;;;;;;;;;;;7.33;49.97;100375.25;5352580;32;33463;-60
2023/04/03 02:46:27;;;;;;;;;;;;;;;6.98;51.14;100384.00;5351445;32;33573;-61
2023/04/03 02:49:29;;;;;;;;;;;;;;;6.67;51.93;100369.03;5371435;32;33735;-60
2023/04/03 02:52:31;;;;;;;;;;;;;;;7.70;49.28;100376.91;5353375;32;33527;-65
2023/04/03 02:55:33;;;;;;;;;;;;;;;7.55;49.69;100378.19;5371785;32;34323;-62
2023/04/03 02:58:35;;;;;;;;;;;;;;;7.15;50.26;100375.72;5354067;32;34985;-61
2023/04/03 03:01:37;;;;;;;;;;;;;;;7.25;50.37;100382.44;5369840;32;33495;-63
2023/04/03 03:04:39;;;;;;;;;;;;;;;6.93;51.03;100375.41;5341669;32;45037;-61
2023/04/03 03:07:41;;;;;;;;;;;;;;;6.71;51.31;100370.69;5352255;32;33890;-61
2023/04/03 03:10:44;;;;;;;;;;;;;;;7.48;49.86;100372.25;5370471;32;33723;-62
2023/04/03 03:13:46;;;;;;;;;;;;;;;6.94;50.75;100380.59;5353790;32;33924;-64
2023/04/03 03:16:48;;;;;;;;;;;;;;;7.26;50.00;100373.69;5371999;32;34115;-62
2023/04/03 03:19:50;;;;;;;;;;;;;;;7.13;50.55;100382.75;5354222;32;33462;-66
2023/04/03 03:22:51;;;;;;;;;;;;;;;7.01;50.52;100381.28;5367329;32;32995;-63
2023/04/03 03:25:57;;;;;;;;;;;;;;;6.14;52.85;100398.97;5357749;32;33576;-61
2023/04/03 03:28:59;;;;;;;;;;;;;;;6.84;51.68;100389.56;5352149;32;33111;-63
2023/04/03 03:32:01;;;;;;;;;;;;;;;6.86;50.91;100389.50;5371638;32;33657;-64
2023/04/03 03:35:03;;;;;;;;;;;;;;;6.76;50.94;100384.53;5358500;32;33769;-64
2023/04/03 03:38:05;;;;;;;;;;;;;;;7.52;48.62;100366.03;5370617;32;34371;-62
2023/04/03 03:41:07;;;;;;;;;;;;;;;7.06;50.64;100392.50;5354161;32;33218;-62
2023/04/03 03:44:09;;;;;;;;;;;;;;;6.51;52.24;100393.81;5362689;32;45086;-64
2023/04/03 03:47:11;;;;;;;;;;;;;;;6.37;52.23;100375.81;5355920;32;34391;-65
2023/04/03 03:50:13;;;;;;;;;;;;;;;6.64;51.65;100381.34;5353793;32;33545;-60
2023/04/03 03:53:15;;;;;;;;;;;;;;;7.22;50.83;100395.59;5369450;32;34496;-62
2023/04/03 03:56:16;;;;;;;;;;;;;;;7.73;48.93;100389.87;5353704;32;32905;-65
2023/04/03 03:59:18;;;;;;;;;;;;;;;6.93;50.70;100391.94;5371081;32;33544;-63
2023/04/03 04:02:20;;;;;;;;;;;;;;;6.49;52.27;100401.66;5353845;32;33650;-62
2023/04/03 04:05:22;;;;;;;;;;;;;;;6.83;51.62;100392.19;5349485;32;33764;-61
2023/04/03 04:08:24;;;;;;;;;;;;;;;7.12;51.05;100386.25;5359031;32;34359;-64
2023/04/03 04:11:27;;;;;;;;;;;;;;;6.78;51.84;100394.94;5353609;32;33628;-62
2023/04/03 04:14:29;;;;;;;;;;;;;;;7.04;50.82;100392.53;5370701;32;34225;-63
2023/04/03 04:17:31;;;;;;;;;;;;;;;6.73;51.53;100361.06;5351862;32;33793;-60
2023/04/03 04:20:33;;;;;;;;;;;;;;;6.95;51.23;100395.38;5370528;32;34303;-63
2023/04/03 04:23:35;;;;;;;;;;;;;;;7.07;50.42;100396.81;5354370;32;34327;-63
2023/04/03 04:26:37;;;;;;;;;;;;;;;6.46;52.31;100393.91;5365836;32;34033;-60
2023/04/03 04:29:39;;;;;;;;;;;;;;;6.41;52.71;100407.94;5357241;32;45123;-61
2023/04/03 04:32:41;;;;;;;;;;;;;;;6.46;52.51;100409.56;5339635;32;33412;-61
2023/04/03 04:35:43;;;;;;;;;;;;;;;6.37;52.42;100396.69;5370767;32;33770;-65
2023/04/03 04:38:45;;;;;;;;;;;;;;;6.34;51.94;100407.22;5352739;32;33848;-63
2023/04/03 04:41:47;;;;;;;;;;;;;;;6.20;53.32;100410.13;5369178;32;33438;-65
2023/04/03 04:44:49;;;;;;;;;;;;;;;6.47;52.28;100419.13;5349131;32;34257;-62
2023/04/03 04:47:52;;;;;;;;;;;;;;;6.60;51.87;100424.94;5361886;32;33933;-64
2023/04/03 04:50:54;;;;;;;;;;;;;;;6.36;52.39;100397.59;5362240;32;34208;-64
2023/04/03 04:53:56;;;;;;;;;;;;;;;6.91;51.45;100414.66;5352824;32;35519;-62
2023/04/03 04:56:58;;;;;;;;;;;;;;;7.23;50.86;100426.06;5369258;32;33997;-60
2023/04/03 05:00:00;;;;;;;;;;;;;;;6.89;51.49;100421.66;5351837;32;36487;-60
2023/04/03 05:03:02;;;;;;;;;;;;;;;7.21;50.50;100418.28;5367916;32;33973;-61
2023/04/03 05:06:04;;;;;;;;;;;;;;;6.02;53.08;100405.28;5339366;32;33053;-61
2023/04/03 05:09:06;;;;;;;;;;;;;;;6.36;52.79;100428.91;5363663;32;33243;-61
2023/04/03 05:12:08;;;;;;;;;;;;;;;6.78;52.14;100427.13;5360920;32;44560;-62
2023/04/03 05:15:10;;;;;;;;;;;;;;;7.37;50.13;100428.34;5355807;32;33417;-60
2023/04/03 05:18:12;;;;;;;;;;;;;;;7.30;50.48;100427.63;5375060;32;33918;-64
2023/04/03 05:21:18;;;;;;;;;;;;;;;6.96;51.55;100438.91;5355405;32;33010;-66
2023/04/03 05:24:20;;;;;;;;;;;;;;;6.86;51.63;100437.41;5371446;32;33420;-60
2023/04/03 05:27:23;;;;;;;;;;;;;;;6.78;51.63;100440.19;5358067;32;34359;-62
2023/04/03 05:30:25;;;;;;;;;;;;;;;7.48;49.63;100435.03;5362118;32;33973;-63
2023/04/03 05:33:27;;;;;;;;;;;;;;;7.59;49.54;100439.97;5368891;32;33780;-64
2023/04/03 05:36:29;;;;;;;;;;;;;;;7.04;51.01;100436.97;5352792;32;33883;-64
2023/04/03 05:39:31;;;;;;;;;;;;;;;6.30;52.67;100446.47;5364771;32;33359;-65
2023/04/03 05:42:33;;;;;;;;;;;;;;;7.48;49.91;100435.03;5354103;32;33744;-64
2023/04/03 05:45:35;;;;;;;;;;;;;;;7.92;48.98;100435.62;5370975;32;33560;-65
2023/04/03 05:48:37;;;;;;;;;;;;;;;7.16;50.86;100433.22;5357315;32;34079;-65
2023/04/03 05:51:40;;;;;;;;;;;;;;;7.36;50.42;100432.72;5363420;32;44660;-65
2023/04/03 05:54:42;;;;;;;;;;;;;;;6.78;51.80;100444.56;5368198;32;33410;-62
2023/04/03 05:57:45;;;;;;;;;;;;;;;7.20;50.69;100415.69;5358457;32;35157;-62
2023/04/03 06:00:46;;;;;;;;;;;;;;;7.06;51.14;100435.16;5373306;32;34121;-63
2023/04/03 06:03:48;;;;;;;;;;;;;;;7.79;49.35;100436.81;5337976;32;34223;-63
2023/04/03 06:06:52;;;;;;;;;;;;;;;9.50;45.22;100432.50;5361571;32;34142;-67
2023/04/03 06:09:55;;;;;;;;;;;;;;;10.74;42.11;100429.78;5332398;32;988821;-65
2023/04/03 06:12:57;;;;;;;;;;;;;;;10.24;42.08;100436.06;5352474;32;33107;-62
2023/04/03 06:15:59;;;;;;;;;;;;;;;8.46;46.19;100444.59;5368521;32;34141;-66
2023/04/03 06:19:02;;;;;;;;;;;;;;;8.65;46.44;100440.50;5362789;32;34283;-63
2023/04/03 06:22:04;;;;;;;;;;;;;;;8.64;46.85;100450.13;5374760;32;33800;-65
2023/04/03 06:25:06;;;;;;;;;;;;;;;9.60;44.25;100433.06;5358587;32;33181;-68
2023/04/03 06:28:09;;;;;;;;;;;;;;;8.98;45.38;100456.09;5377861;32;44384;-65
2023/04/03 06:31:12;;;;;;;;;;;;;;;9.11;45.28;100460.03;5365514;32;34437;-67
2023/04/03 06:34:15;;;;;;;;;;;;;;;9.97;43.22;100450.13;5370144;32;33079;-64
2023/04/03 06:37:20;;;;;;;;;;;;;;;9.85;43.65;100435.66;5366437;32;33024;-66
2023/04/03 06:40:23;;;;;;;;;;;;;;;10.54;42.29;100444.53;5360266;32;33310;-67
2023/04/03 06:43:25;;;;;;;;;;;;;;;12.28;39.22;100446.13;5376821;32;33124;-66
2023/04/03 06:46:27;;;;;;;;;;;;;;;12.07;38.36;100454.06;5366101;32;34425;-64
2023/04/03 06:49:29;;;;;;;;;;;;;;;12.61;37.17;100449.84;5371537;32;34192;-64
2023/04/03 06:52:31;;;;;;;;;;;;;;;13.89;34.77;100453.28;5361779;32;34261;-67
2023/04/03 06:55:33;;;;;;;;;;;;;;;12.93;36.57;100458.03;5364374;32;34318;-64
2023/04/03 06:58:35;;;;;;;;;;;;;;;11.29;39.98;100461.78;5377277;32;33016;-63
2023/04/03 07:01:38;;;;;;;;;;;;;;;12.47;37.74;100468.09;5367195;32;32926;-70
2023/04/03 07:04:40;;;;;;;;;;;;;;;11.33;39.54;100468.59;5358679;32;45329;-64
2023/04/03 07:07:42;;;;;;;;;;;;;;;12.84;37.01;100466.41;5361070;32;34194;-61
2023/04/03 07:10:44;;;;;;;;;;;;;;;12.11;37.62;100481.16;5379387;32;34732;-65
2023/04/03 07:13:46;;;;;;;;;;;;;;;12.10;36.31;100485.53;5366882;32;32984;-68
2023/04/03 07:16:48;;;;;;;;;;;;;;;11.93;36.49;100486.28;5365597;32;34341;-64
2023/04/03 07:19:50;;;;;;;;;;;;;;;10.69;38.71;100490.44;5377226;32;32984;-65
2023/04/03 07:22:52;;;;;;;;;;;;;;;10.45;39.56;100501.84;5361553;32;32821;-65
2023/04/03 07:25:55;;;;;;;;;;;;;;;9.36;41.61;100487.19;5372661;32;32911;-66
2023/04/03 07:28:57;;;;;;;;;;;;;;;10.22;40.91;100490.34;5365145;32;32998;-70
2023/04/03 07:31:59;;;;;;;;;;;;;;;10.04;41.00;100497.13;5375223;32;34231;-67
2023/04/03 07:35:01;;;;;;;;;;;;;;;10.11;40.51;100495.16;5367207;32;33357;-64
2023/04/03 07:38:05;;;;;;;;;;;;;;;10.72;39.43;100490.31;5363043;32;34561;-66
2023/04/03 07:41:07;;;;;;;;;;;;;;;10.54;39.50;100501.50;5363347;32;34476;-66
2023/04/03 07:44:09;;;;;;;;;;;;;;;10.22;39.71;100500.88;5357610;32;47999;-65
2023/04/03 07:47:13;;;;;;;;;;;;;;;10.51;39.60;100504.25;5379462;32;33415;-69
2023/04/03 07:50:15;;;;;;;;;;;;;;;10.02;40.09;100501.56;5365879;32;34262;-63
2023/04/03 07:53:17;;;;;;;;;;;;;;;10.61;39.49;100508.25;5372944;32;32896;-71
2023/04/03 07:56:20;;;;;;;;;;;;;;;11.52;37.62;100502.94;5370803;32;34070;-67
2023/04/03 07:59:22;;;;;;;;;;;;;;;9.25;41.00;100514.69;5360895;32;34845;-67
2023/04/03 08:02:25;;;;;;;;;;;;;;;9.91;41.09;100510.72;5378434;32;33144;-69
2023/04/03 08:05:27;;;;;;;;;;;;;;;9.92;41.09;100509.84;5346090;32;34826;-69
2023/04/03 08:08:29;;;;;;;;;;;;;;;11.24;38.17;100511.09;5379681;32;34274;-67
2023/04/03 08:11:31;;;;;;;;;;;;;;;10.67;38.96;100518.53;5364095;32;35779;-67
2023/04/03 08:14:36;;;;;;;;;;;;;;;10.85;38.34;100516.97;5375936;32;34517;-64
2023/04/03 08:17:38;;;;;;;;;;;;;;;10.77;38.58;100519.91;5368345;32;44909;-66
2023/04/03 08:20:40;;;;;;;;;;;;;;;10.08;40.34;100526.78;5368220;32;34525;-67
2023/04/03 08:23:42;;;;;;;;;;;;;;;9.96;40.39;100524.56;5376554;32;34451;-71
2023/04/03 08:26:44;;;;;;;;;;;;;;;10.39;39.57;100518.69;5365209;32;32918;-63
2023/04/03 08:29:46;;;;;;;;;;;;;;;11.17;38.56;100515.75;5377258;32;33047;-63
2023/04/03 08:32:48;;;;;;;;;;;;;;;12.17;36.45;100513.34;5363796;32;32959;-63
2023/04/03 08:35:50;;;;;;;;;;;;;;;12.33;35.84;100513.53;5376157;32;34791;-65
2023/04/03 08:38:55;;;;;;;;;;;;;;;11.68;36.97;100514.56;5368401;32;36108;-69
2023/04/03 08:41:58;;;;;;;;;;;;;;;10.85;37.86;100512.59;5362962;32;34192;-67
2023/04/03 08:45:09;;;;;;;;;;;;;;;11.17;37.10;100517.50;5372950;32;33093;-65
2023/04/03 08:48:15;;;;;;;;;;;;;;;11.43;36.83;100519.09;5361330;32;44548;-64
2023/04/03 08:51:19;;;;;;;;;;;;;;;11.84;35.92;100507.72;5375730;32;32985;-69
2023/04/03 08:54:24;;;;;;;;;;;;;;;12.06;34.75;100512.97;5356552;32;33044;-69
2023/04/03 08:57:28;;;;;;;;;;;;;;;13.19;32.88;100501.66;5368794;32;33597;-69
2023/04/03 09:00:48;;;;;;;;;;;;;;;13.31;32.76;100505.53;5364826;32;32868;-72
2023/04/03 09:03:50;;;;;;;;;;;;;;;13.25;32.93;100507.53;5360380;32;33060;-71
2023/04/03 09:06:57;;;;;;;;;;;;;;;14.28;31.43;100497.06;5367236;32;34942;-61
2023/04/03 09:10:01;;;;;;;;;;;;;;;17.43;26.09;100492.56;5362048;32;32931;-66
2023/04/03 09:13:07;;;;;;;;;;;;;;;16.21;27.67;100503.78;5363896;32;34458;-66
2023/04/03 09:16:15;;;;;;;;;;;;;;;16.66;26.45;100503.72;5374429;32;44433;-75
2023/04/03 09:19:17;;;;;;;;;;;;;;;15.84;27.91;100504.28;5359808;32;33120;-63
2023/04/03 09:22:25;;;;;;;;;;;;;;;16.46;27.05;100507.59;5380902;32;33166;-75
2023/04/03 09:25:30;;;;;;;;;;;;;;;15.00;28.43;100517.84;5366261;32;34628;-64
2023/04/03 09:28:38;;;;;;;;;;;;;;;16.72;26.56;100506.88;5376227;32;32883;-67
2023/04/03 09:31:56;;;;;;;;;;;;;;;16.92;26.49;100504.75;5371501;32;32907;-72
2023/04/03 09:34:59;;;;;;;;;;;;;;;13.60;30.06;100525.22;5363767;32;34469;-70
2023/04/03 09:38:10;;;;;;;;;;;;;;;13.52;31.98;100529.09;5371339;32;34390;-69
2023/04/03 09:41:17;;;;;;;;;;;;;;;13.52;31.92;100526.47;5359327;32;44916;-70
2023/04/03 09:44:21;;;;;;;;;;;;;;;12.76;32.62;100526.56;5374520;32;33858;-69
2023/04/03 09:47:23;;;;;;;;;;;;;;;13.31;32.01;100509.00;5365024;32;33212;-70
2023/04/03 09:50:25;;;;;;;;;;;;;;;14.84;30.12;100495.84;5365680;32;33179;-77
2023/04/03 09:53:30;;;;;;;;;;;;;;;14.97;30.00;100491.59;5379616;32;33364;-75
2023/04/03 09:56:33;;;;;;;;;;;;;;;15.27;29.54;100496.97;5360569;32;33118;-80
2023/04/03 09:59:36;;;;;;;;;;;;;;;16.47;26.97;100488.94;5379201;32;34272;-73
2023/04/03 10:02:39;;;;;;;;;;;;;;;19.61;23.14;100484.34;5367985;32;43761;-72
2023/04/03 10:05:42;;;;;;;;;;;;;;;17.40;25.20;100470.69;5353056;32;33551;-76
2023/04/03 10:08:44;;;;;;;;;;;;;;;15.98;27.65;100488.44;5370850;32;34169;-78
2023/04/03 10:12:04;;;;;;;;;;;;;;;17.16;26.24;100489.06;5345820;32;32996;-74
2023/04/03 10:15:18;;;;;;;;;;;;;;;15.82;27.70;100493.78;5376748;32;32802;-73
2023/04/03 10:18:42;;;;;;;;;;;;;;;12.52;33.01;100520.62;5364539;32;33122;-68
2023/04/03 10:21:48;;;;;;;;;;;;;;;14.11;30.68;100505.03;5367750;32;45228;-73
2023/04/03 10:24:56;;;;;;;;;;;;;;;13.58;31.38;100503.31;5365053;32;33227;-68
2023/04/03 10:28:02;;;;;;;;;;;;;;;14.23;30.76;100505.25;5359144;32;32978;-70
2023/04/03 10:31:16;;;;;;;;;;;;;;;12.81;32.85;100512.22;5374704;32;32735;-71
2023/04/03 10:34:45;;;;;;;;;;;;;;;13.41;31.50;100515.56;5364240;32;33540;-72
2023/04/03 10:38:13;;;;;;;;;;;;;;;14.55;29.43;100511.50;5363474;32;35035;-72
2023/04/03 10:41:34;;;;;;;;;;;;;;;13.38;31.43;100505.13;5363361;32;44421;-72
2023/04/03 10:45:14;;;;;;;;;;;;;;;12.05;33.81;100515.66;5358160;32;34501;-72
2023/04/03 10:48:35;;;;;;;;;;;;;;;11.55;34.63;100514.19;5324906;32;34461;-67
2023/04/03 10:51:44;;;;;;;;;;;;;;;12.62;33.26;100508.72;5328193;32;33330;-74
2023/04/03 10:54:50;;;;;;;;;;;;;;;12.91;32.50;100504.75;5358911;32;44781;-69
2023/04/03 10:57:56;;;;;;;;;;;;;;;12.69;32.87;100497.84;5364705;32;33148;-70
2023/04/03 11:01:03;;;;;;;;;;;;;;;13.04;32.63;100494.47;5352733;32;32776;-69
2023/04/03 11:04:05;;;;;;;;;;;;;;;13.98;30.94;100488.97;5366333;32;34403;-68
2023/04/03 11:07:11;;;;;;;;;;;;;;;13.71;31.15;100499.97;5360668;32;34719;-69
2023/04/03 11:10:15;;;;;;;;;;;;;;;13.30;31.43;100502.03;5363531;32;48482;-69
2023/04/03 11:13:18;;;;;;;;;;;;;;;13.23;31.54;100498.81;5375564;32;31774;-68
2023/04/03 11:16:24;;;;;;;;;;;;;;;14.40;29.26;100485.84;5368639;32;33293;-71
2023/04/03 11:19:34;;;;;;;;;;;;;;;13.93;30.39;100481.25;5372667;32;33142;-72
2023/04/03 11:22:41;;;;;;;;;;;;;;;14.92;28.59;100483.03;5367383;32;34533;-73
2023/04/03 11:25:43;;;;;;;;;;;;;;;12.84;31.66;100484.87;5367525;32;44428;-74
2023/04/03 11:28:47;;;;;;;;;;;;;;;12.22;32.12;100488.56;5373545;32;33111;-72
2023/04/03 11:31:49;;;;;;;;;;;;;;;12.83;31.50;100477.87;5366726;32;33055;-67
2023/04/03 11:34:51;;;;;;;;;;;;;;;13.00;31.16;100483.19;5375556;32;34730;-67
2023/04/03 11:37:53;;;;;;;;;;;;;;;12.93;30.79;100477.34;5358952;32;33078;-71
2023/04/03 11:40:56;;;;;;;;;;;;;;;14.38;29.09;100473.66;5380639;32;33684;-70
2023/04/03 11:44:06;;;;;;;;;;;;;;;14.81;28.28;100459.84;5363956;32;33059;-67
2023/04/03 11:47:12;;;;;;;;;;;;;;;14.27;29.26;100463.63;5366482;32;32934;-68
2023/04/03 11:50:32;;;;;;;;;;;;;;;13.69;29.66;100466.66;5380417;32;44808;-68
2023/04/03 11:53:35;;;;;;;;;;;;;;;12.59;30.97;100471.97;5367156;32;34279;-70
2023/04/03 11:56:37;;;;;;;;;;;;;;;11.83;32.28;100469.16;5372197;32;33557;-71
2023/04/03 11:59:39;;;;;;;;;;;;;;;12.95;31.08;100458.84;5365100;32;42282;-70
2023/04/03 12:02:41;;;;;;;;;;;;;;;13.04;30.93;100465.44;5369658;32;32900;-68
2023/04/03 12:06:05;;;;;;;;;;;;;;;12.60;31.44;100471.88;5357514;32;33464;-65
2023/04/03 12:09:26;;;;;;;;;;;;;;;13.41;30.83;100468.03;5363108;32;32992;-70
2023/04/03 12:12:28;;;;;;;;;;;;;;;12.33;32.19;100468.72;5374646;32;33171;-69
2023/04/03 12:15:37;;;;;;;;;;;;;;;12.25;31.36;100467.37;5362980;32;33012;-69
2023/04/03 12:18:44;;;;;;;;;;;;;;;11.76;32.67;100459.78;5365860;32;43579;-70
2023/04/03 12:21:46;;;;;;;;;;;;;;;11.68;33.32;100456.63;5376706;32;33228;-68
2023/04/03 12:24:50;;;;;;;;;;;;;;;12.87;31.66;100453.06;5363773;32;33858;-74
2023/04/03 12:27:53;;;;;;;;;;;;;;;12.85;31.99;100458.41;5380526;32;34311;-72
2023/04/03 12:30:55;;;;;;;;;;;;;;;12.72;31.86;100454.63;5368960;32;32629;-75
2023/04/03 12:34:01;;;;;;;;;;;;;;;12.44;32.02;100426.94;5372491;32;32840;-75
2023/04/03 12:37:14;;;;;;;;;;;;;;;13.30;30.94;100449.22;5363331;32;32932;-75
2023/04/03 12:40:37;;;;;;;;;;;;;;;13.05;31.45;100448.69;5364341;32;36517;-74
2023/04/03 12:43:45;;;;;;;;;;;;;;;13.18;31.46;100445.38;5376640;32;44934;-70
2023/04/03 12:46:49;;;;;;;;;;;;;;;13.17;31.30;100453.38;5367466;32;33251;-69
2023/04/03 12:49:53;;;;;;;;;;;;;;;13.00;31.05;100447.13;5378615;32;34192;-67
2023/04/03 12:52:55;;;;;;;;;;;;;;;12.86;31.44;100448.72;5366653;32;34683;-72
2023/04/03 12:56:18;;;;;;;;;;;;;;;12.87;31.11;100443.34;5358015;32;34965;-72
2023/04/03 12:59:24;;;;;;;;;;;;;;;13.78;30.45;100442.41;5350050;32;36292;-74
2023/04/03 13:02:29;;;;;;;;;;;;;;;14.00;29.90;100443.00;5364928;32;34192;-71
2023/04/03 13:05:32;;;;;;;;;;;;;;;14.76;28.78;100431.91;5352461;32;33028;-65
2023/04/03 13:08:37;;;;;;;;;;;;;;;12.40;32.45;100414.81;5366968;32;34331;-65
2023/04/03 13:11:40;;;;;;;;;;;;;;;14.13;29.56;100423.87;5363559;32;44869;-71
2023/04/03 13:14:53;;;;;;;;;;;;;;;12.89;31.72;100427.47;5371550;32;34395;-69
2023/04/03 13:17:56;;;;;;;;;;;;;;;13.22;31.58;100427.66;5361453;32;33048;-66
2023/04/03 13:21:03;;;;;;;;;;;;;;;12.59;32.15;100420.06;5374217;32;33078;-71
2023/04/03 13:24:05;;;;;;;;;;;;;;;12.60;31.85;100419.16;5358184;32;34360;-70
2023/04/03 13:27:16;;;;;;;;;;;;;;;12.89;31.40;100419.56;5371489;32;46789;-67
2023/04/03 13:30:26;;;;;;;;;;;;;;;13.29;30.49;100413.22;5368334;32;34035;-70
2023/04/03 13:33:29;;;;;;;;;;;;;;;13.61;29.80;100416.03;5364905;32;34695;-70
2023/04/03 13:36:32;;;;;;;;;;;;;;;13.13;30.85;100414.84;5379205;32;34505;-69
2023/04/03 13:39:34;;;;;;;;;;;;;;;13.44;30.55;100409.78;5367398;32;32925;-70
2023/04/03 13:42:43;;;;;;;;;;;;;;;13.93;29.64;100412.56;5377732;32;32709;-69
2023/04/03 13:46:04;;;;;;;;;;;;;;;13.96;29.66;100409.75;5365238;32;44316;-66
2023/04/03 13:49:22;;;;;;;;;;;;;;;14.32;29.31;100403.44;5365028;32;33143;-66
2023/04/03 13:52:29;;;;;;;;;;;;;;;14.34;28.41;100396.28;5378037;32;32821;-73
2023/04/03 13:55:34;;;;;;;;;;;;;;;14.33;28.60;100395.41;5367584;32;35530;-70
2023/04/03 13:58:36;;;;;;;;;;;;;;;13.13;30.36;100402.50;5380687;32;33294;-73
2023/04/03 14:01:55;;;;;;;;;;;;;;;13.23;30.47;100393.25;5351556;32;30710;-71
2023/04/03 14:05:01;;;;;;;;;;;;;;;14.44;28.37;100376.34;5351586;32;34625;-73
2023/04/03 14:08:03;;;;;;;;;;;;;;;14.43;28.13;100376.44;5375560;32;32864;-73
2023/04/03 14:11:05;;;;;;;;;;;;;;;13.19;29.63;100378.47;5368758;32;34234;-67
2023/04/03 14:14:30;;;;;;;;;;;;;;;13.90;28.64;100391.56;5379217;32;31846;-70
2023/04/03 14:17:33;;;;;;;;;;;;;;;12.18;30.90;100390.38;5364204;32;33053;-69
2023/04/03 14:20:35;;;;;;;;;;;;;;;13.18;29.84;100383.81;5367681;32;35565;-69
2023/04/03 14:23:37;;;;;;;;;;;;;;;12.41;30.90;100384.88;5371846;32;34381;-72
2023/04/03 14:26:40;;;;;;;;;;;;;;;12.10;31.73;100380.16;5358184;32;44662;-70
2023/04/03 14:29:42;;;;;;;;;;;;;;;13.06;30.53;100376.50;5369324;32;33194;-71
2023/04/03 14:32:45;;;;;;;;;;;;;;;12.76;30.42;100378.88;5362007;32;33425;-71
2023/04/03 14:35:47;;;;;;;;;;;;;;;13.53;29.24;100379.44;5381337;32;33100;-71
2023/04/03 14:38:50;;;;;;;;;;;;;;;13.52;29.50;100383.00;5344838;32;34780;-74
2023/04/03 14:41:52;;;;;;;;;;;;;;;13.05;29.69;100383.56;5363228;32;32870;-71
2023/04/03 14:44:54;;;;;;;;;;;;;;;12.61;30.64;100383.09;5378989;32;34054;-70
2023/04/03 14:47:56;;;;;;;;;;;;;;;13.02;30.10;100378.47;5368375;32;33551;-73
2023/04/03 14:50:58;;;;;;;;;;;;;;;14.27;27.77;100358.75;5378526;32;32978;-71
2023/04/03 14:54:11;;;;;;;;;;;;;;;13.86;28.51;100384.75;5368214;32;32938;-71
2023/04/03 14:57:14;;;;;;;;;;;;;;;12.76;30.43;100389.44;5359400;32;44452;-71
2023/04/03 15:00:17;;;;;;;;;;;;;;;13.62;29.21;100386.88;5366601;32;34294;-72
2023/04/03 15:03:20;;;;;;;;;;;;;;;12.74;30.46;100386.84;5349781;32;34659;-74
2023/04/03 15:06:22;;;;;;;;;;;;;;;13.37;29.69;100384.62;5356569;32;33009;-74
2023/04/03 15:09:26;;;;;;;;;;;;;;;13.13;30.15;100383.19;5366300;32;33052;-72
2023/04/03 15:12:28;;;;;;;;;;;;;;;13.66;29.53;100377.03;5380367;32;33439;-69
2023/04/03 15:15:30;;;;;;;;;;;;;;;12.71;30.53;100382.59;5368520;32;32750;-68
2023/04/03 15:18:36;;;;;;;;;;;;;;;13.08;29.80;100357.06;5376646;32;32979;-67
2023/04/03 15:21:39;;;;;;;;;;;;;;;12.83;30.22;100389.06;5356726;32;45208;-72
2023/04/03 15:24:41;;;;;;;;;;;;;;;12.81;30.79;100382.13;5365500;32;34317;-66
2023/04/03 15:27:44;;;;;;;;;;;;;;;12.19;31.46;100392.94;5379937;32;34775;-71
2023/04/03 15:30:46;;;;;;;;;;;;;;;11.95;32.46;100387.91;5362501;32;34436;-69
2023/04/03 15:33:48;;;;;;;;;;;;;;;12.14;32.35;100386.16;5377486;32;32892;-70
2023/04/03 15:36:52;;;;;;;;;;;;;;;12.16;32.32;100389.56;5367460;32;34338;-69
2023/04/03 15:39:57;;;;;;;;;;;;;;;11.85;33.15;100390.97;5373558;32;33057;-69
2023/04/03 15:42:59;;;;;;;;;;;;;;;11.53;32.48;100373.06;5374245;32;33242;-69
2023/04/03 15:46:01;;;;;;;;;;;;;;;12.19;31.67;100386.81;5366338;32;33076;-72
2023/04/03 15:49:04;;;;;;;;;;;;;;;11.92;31.79;100395.03;5374527;32;32950;-74
2023/04/03 15:52:06;;;;;;;;;;;;;;;11.90;32.19;100386.31;5364613;32;32596;-68